Boulder Creek, CA

8:21 AM PDT on October 01, 2014 (GMT -0700)
Cresta Vista | Change Station
CLOSE
Current Station
Personal Weather Station
Location: Boulder Creek, CA
Elevation: 695 ft
Nearby Weather Stations

Elev 695 ft 37.14 °N, 122.13 °W | Updated 2 seconds ago

Clear
Clear
49.4 °F
Feels Like 49 °F
N
0.0
Wind Variable Wind from NW
Gusts 1.0 mph

Today
High -- | Low -- °F
--% Chance of Precip.
Yesterday
High -- | Low -- °F
Precip. -- in
7:04 AM 6:51 PM
Waxing Crescent, 48% visible
Pressure 29.97 in
Visibility 10.0 miles
Clouds Few 700 ft
Windchill 49 °F
Dew Point 49 °F
Humidity 97%
Rainfall 0.00 in
Snow Depth 0 in , 0 in , 1 in
UV 0.0 out of 12
Pollen 3.60 out of 12
Ozone Good
PM2.5 Good
Flu Activity Not available.
METAR KSJC 301453Z 13003KT 10SM FEW007 13/12 A2997 RMK AO2 SLP149 T01330117 50003

More Conditions Fewer Conditions

Pressure 29.97 in
Visibility 10.0 miles
Clouds Few 700 ft
Windchill 49 °F
Dew Point 49 °F
Humidity 97%
Rainfall 0.00 in
Snow Depth 0 in , 0 in , 1 in
UV 0.0 out of 12
Pollen 3.60 out of 12
Ozone Good
PM2.5 Good
Flu Activity Not available.
METAR KSJC 301453Z 13003KT 10SM FEW007 13/12 A2997 RMK AO2 SLP149 T01330117 50003

More Conditions Fewer Conditions

10-Day Weather Forecast

Almanac

Astronomy

Oct. 01, 2014 Rise Set
Actual Time 7:04 AM PDT 6:51 PM PDT
Civil Twilight 6:38 AM PDT 7:17 PM PDT
Nautical Twilight 6:07 AM PDT 7:47 PM PDT
Astronomical Twilight 5:37 AM PDT 8:17 PM PDT
Moon 2:03 PM PDT No Moon Set
Length of Visible Light 12h 39m
Length of Day
11h 47m
Tomorrow will be 2m 20s shorter.
Waxing Crescent, 48% of the Moon is Illuminated
Today
Waxing Crescent
Oct 1
First Quarter
Oct 8
Full
Oct 15
Last Quarter
Oct 23
New

Today's Extremes

State Highs State Lows

Community

WunderPhotos

Upload Photos

1,757,966 photos uploaded!

Nearby

Air Quality

  Air Quality AQ Index Pollutant
Yesterday Good
OZONE
Yesterday Good
PM2.5
Current Good
PM2.5
Current Good
OZONE
Wednesday Moderate
OZONE
Thursday Moderate
OZONE
Friday Moderate
OZONE
Saturday Moderate
OZONE
Sunday Moderate
OZONE

Snow Depth

Station Depth Elevation
Independence Camp 0 in 7000 ft
Carson Pass 0 in 8500 ft
Echo Peak 1 in 7800 ft
Hagan's Meadow 0 in 8000 ft
Heavenly Valley 1 in 8850 ft

Earthquake Activity

City Distance Mag. Time & Date
Shandon, California 136 miles 2.9 5:34 PM PDT
2014-09-30
East Foothills, California 29 miles 2.6 3:34 PM PDT
2014-09-30
South Dos Palos, California 79 miles 2.7 3:08 PM PDT
2014-09-30
South Dos Palos, California 79 miles 2.5 9:18 PM PDT
2014-09-29
Minimum magnitude displayed is 2.5.

Coastal Water Temperatures

Place Temperature
Monterey, CA 61.0 °F
Redwood City, CA 70.0 °F

Nearby Weather Stations